Time;durP1;ratioP1;P1;durP2;ratioP2;P2;SDS_P1;SDS_P2;PMS_P1;PMS_P2;Temp;Humidity;BMP_temperature;BMP_pressure;BME280_temperature;BME280_humidity;BME280_pressure;Samples;Min_cycle;Max_cycle;Signal;HPM_P1;HPM_P2
2024/01/04 00:00:28;;;;;;;3.40;0.40;;;6.70;99.90;;;;;;5029254;28;20037;-70
2024/01/04 00:02:54;;;;;;;2.15;0.40;;;6.70;99.90;;;;;;5027871;28;20513;-70
2024/01/04 00:05:19;;;;;;;2.80;0.33;;;6.70;99.90;;;;;;5024790;28;20046;-70
2024/01/04 00:07:45;;;;;;;3.83;0.30;;;6.60;99.90;;;;;;5028838;28;20088;-69
2024/01/04 00:10:13;;;;;;;1.23;0.60;;;6.50;99.90;;;;;;5021436;28;20030;-70
2024/01/04 00:12:39;;;;;;;2.97;0.45;;;6.60;99.90;;;;;;5022403;28;20225;-68
2024/01/04 00:15:05;;;;;;;0.57;0.28;;;6.50;99.90;;;;;;5026953;28;20380;-71
2024/01/04 00:17:32;;;;;;;2.28;0.50;;;6.50;99.90;;;;;;5027254;28;20196;-70
2024/01/04 00:19:57;;;;;;;3.33;0.28;;;6.50;99.90;;;;;;5023753;28;20087;-70
2024/01/04 00:22:23;;;;;;;3.13;0.53;;;6.40;99.90;;;;;;5029124;28;20053;-70
2024/01/04 00:24:49;;;;;;;0.38;0.20;;;6.50;99.90;;;;;;5027471;28;20034;-69
2024/01/04 00:27:15;;;;;;;4.43;0.30;;;6.50;99.90;;;;;;5024636;28;20057;-70
2024/01/04 00:29:42;;;;;;;1.13;0.38;;;6.40;99.90;;;;;;5027990;28;20132;-70
2024/01/04 00:32:09;;;;;;;3.50;0.38;;;6.40;99.90;;;;;;5032514;28;20045;-69
2024/01/04 00:34:34;;;;;;;3.53;0.32;;;6.40;99.90;;;;;;5009749;28;20504;-70
2024/01/04 00:37:00;;;;;;;2.27;0.60;;;6.40;99.90;;;;;;5024143;28;20049;-70
2024/01/04 00:39:26;;;;;;;0.83;0.30;;;6.40;99.90;;;;;;5009778;28;20041;-70
2024/01/04 00:41:53;;;;;;;2.73;0.57;;;6.50;99.90;;;;;;5026866;28;20038;-70
2024/01/04 00:44:19;;;;;;;1.30;0.30;;;6.40;99.90;;;;;;5027151;28;20037;-69
2024/01/04 00:46:44;;;;;;;1.77;0.47;;;6.40;99.90;;;;;;5029461;28;20033;-70
2024/01/04 00:49:10;;;;;;;0.60;0.30;;;6.40;99.90;;;;;;5024236;28;20045;-70
2024/01/04 00:51:35;;;;;;;0.77;0.10;;;6.40;99.90;;;;;;5023459;28;20042;-70
2024/01/04 00:54:02;;;;;;;1.33;0.30;;;6.40;99.90;;;;;;5021105;28;20754;-70
2024/01/04 00:56:35;;;;;;;0.70;0.28;;;6.40;99.90;;;;;;5025556;28;20136;-70
2024/01/04 00:59:01;;;;;;;1.15;0.45;;;6.40;99.90;;;;;;5008604;28;20513;-70
2024/01/04 01:01:27;;;;;;;2.17;0.22;;;6.40;99.90;;;;;;5028372;28;20037;-70
2024/01/04 01:03:57;;;;;;;0.93;0.30;;;6.40;99.90;;;;;;5026142;28;20076;-70
2024/01/04 01:06:23;;;;;;;3.13;0.88;;;6.40;99.90;;;;;;5028265;28;20087;-71
2024/01/04 01:08:49;;;;;;;0.80;0.28;;;6.40;99.90;;;;;;5031192;28;20265;-70
2024/01/04 01:11:21;;;;;;;1.45;0.43;;;6.40;99.90;;;;;;5030663;28;20044;-70
2024/01/04 01:13:47;;;;;;;1.83;0.30;;;6.40;99.90;;;;;;5023848;28;20069;-70
2024/01/04 01:16:14;;;;;;;1.38;0.50;;;6.40;99.90;;;;;;5038480;28;20160;-70
2024/01/04 01:18:40;;;;;;;2.33;0.40;;;6.40;99.90;;;;;;5028618;28;20135;-71
2024/01/04 01:21:06;;;;;;;2.28;0.30;;;6.30;99.90;;;;;;5026923;28;20121;-69
2024/01/04 01:23:32;;;;;;;1.80;0.30;;;6.30;99.90;;;;;;5033231;28;20048;-70
2024/01/04 01:25:58;;;;;;;1.85;0.40;;;6.30;99.90;;;;;;5029952;28;20402;-71
2024/01/04 01:28:24;;;;;;;2.03;0.68;;;6.30;99.90;;;;;;5036658;28;20468;-69
2024/01/04 01:30:51;;;;;;;1.90;0.30;;;6.20;99.90;;;;;;5024055;28;20493;-69
2024/01/04 01:33:17;;;;;;;1.17;0.40;;;6.20;99.90;;;;;;5011873;28;20105;-70
2024/01/04 01:35:43;;;;;;;2.33;0.30;;;6.20;99.90;;;;;;5029061;28;20037;-70
2024/01/04 01:38:09;;;;;;;0.65;0.22;;;6.20;99.90;;;;;;5028690;28;20054;-69
2024/01/04 01:40:35;;;;;;;1.38;0.35;;;6.20;99.90;;;;;;5029442;28;20294;-70
2024/01/04 01:43:01;;;;;;;2.25;0.65;;;6.20;99.90;;;;;;5028209;28;20053;-70
2024/01/04 01:45:27;;;;;;;3.65;0.40;;;6.20;99.90;;;;;;5029626;28;20040;-70
2024/01/04 01:47:55;;;;;;;3.28;0.50;;;6.20;99.90;;;;;;5029304;28;20068;-71
2024/01/04 01:50:23;;;;;;;3.78;0.43;;;6.10;99.90;;;;;;5027762;28;20044;-70
2024/01/04 01:52:51;;;;;;;1.40;0.22;;;6.10;99.90;;;;;;5030437;28;20162;-73
2024/01/04 01:55:21;;;;;;;1.05;0.45;;;6.10;99.90;;;;;;5031301;28;20056;-71
2024/01/04 01:57:47;;;;;;;3.13;0.70;;;6.10;99.90;;;;;;5035434;28;20037;-71
2024/01/04 02:00:14;;;;;;;0.88;0.20;;;6.10;99.90;;;;;;5027702;28;20064;-71
2024/01/04 02:02:44;;;;;;;1.10;0.40;;;6.10;99.90;;;;;;5028646;28;20163;-71
2024/01/04 02:05:10;;;;;;;0.90;0.30;;;6.10;99.90;;;;;;5028290;28;20103;-71
2024/01/04 02:07:40;;;;;;;2.47;0.47;;;6.00;99.90;;;;;;5028574;28;20041;-69
2024/01/04 02:10:07;;;;;;;0.40;0.30;;;6.00;99.90;;;;;;5029529;28;20041;-69
2024/01/04 02:12:33;;;;;;;4.25;0.85;;;6.00;99.90;;;;;;5012022;28;20065;-71
2024/01/04 02:15:07;;;;;;;2.75;0.43;;;6.00;99.90;;;;;;5028979;28;20510;-70
2024/01/04 02:17:37;;;;;;;0.43;0.20;;;6.00;99.90;;;;;;5027763;28;20285;-72
2024/01/04 02:20:04;;;;;;;4.28;0.52;;;6.00;99.90;;;;;;5020373;28;20337;-69
2024/01/04 02:22:30;;;;;;;1.92;0.30;;;6.00;99.90;;;;;;5012344;28;20436;-71
2024/01/04 02:24:57;;;;;;;0.50;0.17;;;6.00;99.90;;;;;;5020229;28;20402;-71
2024/01/04 02:27:23;;;;;;;6.03;0.50;;;6.00;99.90;;;;;;5028890;28;20425;-70
2024/01/04 02:29:49;;;;;;;1.05;0.20;;;6.00;99.90;;;;;;5028594;28;20034;-71
2024/01/04 02:32:15;;;;;;;2.95;0.55;;;5.90;99.90;;;;;;5029774;28;20103;-69
2024/01/04 02:34:41;;;;;;;2.90;0.47;;;5.90;99.90;;;;;;5015207;28;20041;-71
2024/01/04 02:37:07;;;;;;;1.08;0.30;;;5.90;99.90;;;;;;5028498;28;20132;-77
2024/01/04 02:39:34;;;;;;;1.40;0.28;;;5.90;99.90;;;;;;5013448;28;20068;-75
2024/01/04 02:42:00;;;;;;;2.70;0.50;;;5.90;99.90;;;;;;4944356;28;20419;-74
2024/01/04 02:44:27;;;;;;;1.90;0.40;;;5.80;99.90;;;;;;5017096;28;20128;-70
2024/01/04 02:46:53;;;;;;;1.67;0.35;;;5.80;99.90;;;;;;5022103;28;20402;-70
2024/01/04 02:49:22;;;;;;;1.92;0.35;;;5.80;99.90;;;;;;5014294;28;20446;-70
2024/01/04 02:51:48;;;;;;;2.30;1.52;;;5.70;99.90;;;;;;5030903;28;20046;-70
2024/01/04 02:54:14;;;;;;;3.67;0.30;;;5.60;99.90;;;;;;5029461;28;20087;-70
2024/01/04 02:56:40;;;;;;;2.97;0.37;;;5.60;99.90;;;;;;5029697;28;20073;-70
2024/01/04 02:59:07;;;;;;;1.23;0.30;;;5.60;99.90;;;;;;5010291;28;20600;-70
2024/01/04 03:01:33;;;;;;;1.42;0.40;;;5.60;99.90;;;;;;5035984;28;20052;-70
2024/01/04 03:03:58;;;;;;;0.93;0.30;;;5.60;99.90;;;;;;5028209;28;20041;-70
2024/01/04 03:06:25;;;;;;;1.27;0.30;;;5.60;99.90;;;;;;5032496;28;20395;-70
2024/01/04 03:08:51;;;;;;;2.60;0.35;;;5.50;99.90;;;;;;5034580;28;20037;-70
2024/01/04 03:11:17;;;;;;;1.10;0.38;;;5.50;99.90;;;;;;5029666;28;20042;-70
2024/01/04 03:13:43;;;;;;;4.40;0.60;;;5.40;99.90;;;;;;5028451;28;20402;-70
2024/01/04 03:16:09;;;;;;;2.17;0.40;;;5.40;99.90;;;;;;5033481;28;20286;-70
2024/01/04 03:18:34;;;;;;;1.07;0.30;;;5.40;99.90;;;;;;5026207;28;20571;-71
2024/01/04 03:21:02;;;;;;;0.57;0.20;;;5.30;99.90;;;;;;5026586;28;20037;-70
2024/01/04 03:23:27;;;;;;;0.98;0.13;;;5.30;99.90;;;;;;5021789;28;20376;-70
2024/01/04 03:25:54;;;;;;;2.10;0.37;;;5.30;99.90;;;;;;5021771;28;20045;-70
2024/01/04 03:28:19;;;;;;;7.28;0.57;;;5.20;99.90;;;;;;5022699;28;20037;-70
2024/01/04 03:30:45;;;;;;;1.60;0.30;;;5.20;99.90;;;;;;5028888;28;20044;-70
2024/01/04 03:33:11;;;;;;;0.87;0.40;;;5.30;99.90;;;;;;5030441;28;20099;-70
2024/01/04 03:35:36;;;;;;;1.43;0.30;;;5.20;99.90;;;;;;5035827;28;20041;-70
2024/01/04 03:38:04;;;;;;;2.83;0.30;;;5.20;99.90;;;;;;5027676;28;20047;-70
2024/01/04 03:40:30;;;;;;;1.00;0.30;;;5.20;99.90;;;;;;5021887;28;20087;-70
2024/01/04 03:42:56;;;;;;;2.47;0.20;;;5.30;99.90;;;;;;5027533;28;20073;-70
2024/01/04 03:45:21;;;;;;;2.33;0.27;;;5.20;99.90;;;;;;5027457;28;20132;-70
2024/01/04 03:47:48;;;;;;;1.10;0.30;;;5.20;99.90;;;;;;5031903;28;20044;-70
2024/01/04 03:50:13;;;;;;;3.08;0.30;;;5.20;99.90;;;;;;5023864;28;20034;-70
2024/01/04 03:52:39;;;;;;;2.07;0.40;;;5.20;99.90;;;;;;5029192;28;20048;-70
2024/01/04 03:55:05;;;;;;;0.98;0.80;;;5.20;99.90;;;;;;5029144;28;20099;-70
2024/01/04 03:57:31;;;;;;;2.13;0.50;;;5.20;99.90;;;;;;5028057;28;20045;-70
2024/01/04 03:59:56;;;;;;;2.23;0.93;;;5.20;99.90;;;;;;5027898;28;20298;-70
2024/01/04 04:02:22;;;;;;;1.33;0.23;;;5.20;99.90;;;;;;5027958;28;20406;-70
2024/01/04 04:04:49;;;;;;;1.60;0.57;;;5.20;99.90;;;;;;5034796;28;20041;-70
2024/01/04 04:07:14;;;;;;;0.70;0.20;;;5.20;99.90;;;;;;5029120;28;20405;-70
2024/01/04 04:09:40;;;;;;;1.40;0.37;;;5.20;99.90;;;;;;5028697;28;20040;-70
2024/01/04 04:12:06;;;;;;;2.63;0.60;;;5.30;99.90;;;;;;5027389;28;20049;-70
2024/01/04 04:14:34;;;;;;;2.53;0.50;;;5.20;99.90;;;;;;5034300;28;20068;-70
2024/01/04 04:17:00;;;;;;;2.83;0.30;;;5.20;99.90;;;;;;5035608;28;20045;-71
2024/01/04 04:19:27;;;;;;;;;;;5.20;99.90;;;;;;5006680;28;20055;-70
2024/01/04 04:21:52;;;;;;;0.55;0.30;;;5.20;99.90;;;;;;5028560;28;20315;-70
2024/01/04 04:24:18;;;;;;;4.67;0.50;;;5.10;99.90;;;;;;5028070;28;20088;-70
2024/01/04 04:26:43;;;;;;;2.73;0.67;;;5.10;99.90;;;;;;5028599;28;20124;-70
2024/01/04 04:29:09;;;;;;;0.83;0.37;;;5.10;99.90;;;;;;5027971;28;20041;-70
2024/01/04 04:31:35;;;;;;;1.63;0.30;;;5.10;99.90;;;;;;5042095;28;20087;-70
2024/01/04 04:34:00;;;;;;;1.23;0.40;;;5.10;99.90;;;;;;5020539;28;20120;-70
2024/01/04 04:36:26;;;;;;;1.90;0.70;;;5.10;99.90;;;;;;5041490;28;20037;-70
2024/01/04 04:38:52;;;;;;;3.47;0.67;;;5.10;99.90;;;;;;5032148;28;20397;-70
2024/01/04 04:41:17;;;;;;;1.53;0.40;;;5.10;99.90;;;;;;5012510;28;20047;-70
2024/01/04 04:43:43;;;;;;;2.47;0.60;;;5.10;99.90;;;;;;5036853;28;20064;-70
2024/01/04 04:46:10;;;;;;;1.50;0.27;;;5.10;99.90;;;;;;5032449;28;20037;-70
2024/01/04 04:48:36;;;;;;;;;;;5.10;99.90;;;;;;5027477;28;20049;-70
2024/01/04 04:51:02;;;;;;;5.72;0.68;;;5.10;99.90;;;;;;5035933;28;20291;-70
2024/01/04 04:53:28;;;;;;;3.20;0.40;;;5.10;99.90;;;;;;5031366;28;20482;-70
2024/01/04 04:55:54;;;;;;;0.97;0.27;;;5.10;99.90;;;;;;5030634;28;20132;-70
2024/01/04 04:58:19;;;;;;;1.87;0.40;;;5.10;99.90;;;;;;5032035;28;20442;-70
2024/01/04 05:00:45;;;;;;;1.63;0.30;;;5.10;99.90;;;;;;5015290;28;20042;-70
2024/01/04 05:03:13;;;;;;;2.77;0.30;;;5.10;99.90;;;;;;5037798;28;20310;-70
2024/01/04 05:05:39;;;;;;;1.30;0.30;;;5.10;99.90;;;;;;5016463;28;20398;-69
2024/01/04 05:08:05;;;;;;;4.13;0.20;;;5.10;99.90;;;;;;5042242;28;20049;-70
2024/01/04 05:10:31;;;;;;;5.18;0.47;;;5.10;99.90;;;;;;5014006;28;20042;-70
2024/01/04 05:12:59;;;;;;;0.45;0.20;;;5.10;99.90;;;;;;5031643;28;20045;-70
2024/01/04 05:15:26;;;;;;;2.30;0.40;;;5.10;99.90;;;;;;5031520;28;20512;-70
2024/01/04 05:17:52;;;;;;;0.75;0.20;;;5.00;99.90;;;;;;5031673;28;20401;-70
2024/01/04 05:20:18;;;;;;;2.80;0.23;;;5.00;99.90;;;;;;5031673;28;20041;-70
2024/01/04 05:22:44;;;;;;;3.15;0.47;;;5.00;99.90;;;;;;5029993;28;20072;-70
2024/01/04 05:25:13;;;;;;;0.87;0.20;;;5.00;99.90;;;;;;5029964;28;20045;-70
2024/01/04 05:27:38;;;;;;;3.22;0.75;;;5.00;99.90;;;;;;5013046;28;20083;-70
2024/01/04 05:30:07;;;;;;;2.80;0.43;;;5.00;99.90;;;;;;5043067;28;20033;-68
2024/01/04 05:32:37;;;;;;;1.35;0.40;;;5.00;99.90;;;;;;5021711;28;20409;-69
2024/01/04 05:35:03;;;;;;;0.70;0.20;;;4.90;99.90;;;;;;5029809;28;20072;-69
2024/01/04 05:37:29;;;;;;;1.05;0.57;;;4.90;99.90;;;;;;5029288;28;20149;-68
2024/01/04 05:39:54;;;;;;;1.60;0.40;;;4.90;99.90;;;;;;5034942;28;20050;-69
2024/01/04 05:42:20;;;;;;;2.10;0.30;;;4.90;99.90;;;;;;5030966;28;20493;-68
2024/01/04 05:44:46;;;;;;;1.07;0.33;;;4.90;99.90;;;;;;5031176;28;20046;-69
2024/01/04 05:47:11;;;;;;;0.77;0.20;;;4.90;99.90;;;;;;5031257;28;20187;-69
2024/01/04 05:49:37;;;;;;;3.20;0.73;;;4.90;99.90;;;;;;5030694;28;20045;-68
2024/01/04 05:52:03;;;;;;;2.45;0.47;;;4.90;99.90;;;;;;5032995;28;20053;-69
2024/01/04 05:54:29;;;;;;;1.65;0.40;;;4.90;99.90;;;;;;5024200;28;20053;-69
2024/01/04 05:56:55;;;;;;;1.23;0.30;;;4.90;99.90;;;;;;5012944;28;20045;-69
2024/01/04 05:59:24;;;;;;;1.48;0.40;;;4.90;99.90;;;;;;5030684;28;20045;-69
2024/01/04 06:01:51;;;;;;;2.78;0.93;;;4.90;99.90;;;;;;5029660;28;20564;-69
2024/01/04 06:04:17;;;;;;;;;;;4.80;99.90;;;;;;5031686;28;20129;-69
2024/01/04 06:06:42;;;;;;;1.52;0.57;;;4.80;99.90;;;;;;5029295;28;19984;-69
2024/01/04 06:09:08;;;;;;;2.00;0.53;;;4.90;99.90;;;;;;5031041;28;20030;-68
2024/01/04 06:11:34;;;;;;;1.00;0.27;;;4.90;99.90;;;;;;5022395;28;20041;-68
2024/01/04 06:13:59;;;;;;;2.03;0.40;;;4.90;99.90;;;;;;5012551;28;20362;-69
2024/01/04 06:16:25;;;;;;;0.63;0.30;;;4.90;99.90;;;;;;5032010;28;20282;-69
2024/01/04 06:18:51;;;;;;;3.73;0.40;;;4.90;99.90;;;;;;5031574;28;20125;-69
2024/01/04 06:21:17;;;;;;;1.85;0.20;;;4.90;99.90;;;;;;5030710;28;20112;-69
2024/01/04 06:23:42;;;;;;;1.80;0.60;;;4.90;99.90;;;;;;5029008;28;20498;-68
2024/01/04 06:26:08;;;;;;;7.03;0.37;;;4.90;99.90;;;;;;5029085;28;20159;-69
2024/01/04 06:28:36;;;;;;;4.40;0.20;;;4.90;99.90;;;;;;5029854;28;20043;-69
2024/01/04 06:31:02;;;;;;;2.90;0.50;;;4.90;99.90;;;;;;5029202;28;20514;-69
2024/01/04 06:33:28;;;;;;;1.13;0.47;;;4.90;99.90;;;;;;5028788;28;20077;-68
2024/01/04 06:35:53;;;;;;;0.70;0.30;;;4.90;99.90;;;;;;5030740;28;20057;-69
2024/01/04 06:38:19;;;;;;;0.60;0.27;;;4.90;99.90;;;;;;5029232;28;20045;-69
2024/01/04 06:40:45;;;;;;;3.03;0.50;;;4.90;99.90;;;;;;5034352;28;20270;-69
2024/01/04 06:43:10;;;;;;;1.13;0.30;;;4.90;99.90;;;;;;5033871;28;20041;-70
2024/01/04 06:45:36;;;;;;;3.53;1.10;;;4.90;99.90;;;;;;5036473;28;20029;-70
2024/01/04 06:48:03;;;;;;;3.00;0.40;;;4.90;99.90;;;;;;5012574;28;20168;-69
2024/01/04 06:50:29;;;;;;;;;;;4.90;99.90;;;;;;5023349;28;20441;-74
2024/01/04 06:52:54;;;;;;;3.28;0.57;;;4.90;99.90;;;;;;5025044;28;19917;-70
2024/01/04 06:55:20;;;;;;;4.93;0.50;;;4.90;99.90;;;;;;5027837;28;20095;-70
2024/01/04 06:57:45;;;;;;;1.37;0.33;;;4.80;99.90;;;;;;5027754;28;20059;-70
2024/01/04 07:00:12;;;;;;;1.97;0.50;;;4.80;99.90;;;;;;5024303;28;20420;-69
2024/01/04 07:02:38;;;;;;;4.45;0.28;;;4.80;99.90;;;;;;5026719;28;20041;-69
2024/01/04 07:05:05;;;;;;;1.10;0.20;;;4.80;99.90;;;;;;5028439;28;20110;-69
2024/01/04 07:07:35;;;;;;;1.95;0.47;;;4.80;99.90;;;;;;5023193;28;20106;-70
2024/01/04 07:10:02;;;;;;;2.95;0.30;;;4.80;99.90;;;;;;5020129;28;20037;-71
2024/01/04 07:12:27;;;;;;;1.23;0.47;;;4.80;99.90;;;;;;5022078;28;20068;-71
2024/01/04 07:14:54;;;;;;;3.37;0.50;;;4.80;99.90;;;;;;5005602;28;20049;-71
2024/01/04 07:17:20;;;;;;;4.13;0.60;;;4.70;99.90;;;;;;5016817;28;20049;-71
2024/01/04 07:19:46;;;;;;;1.75;0.35;;;4.80;99.90;;;;;;5024948;28;20037;-71
2024/01/04 07:22:12;;;;;;;4.57;0.50;;;4.70;99.90;;;;;;5023521;28;20187;-71
2024/01/04 07:24:39;;;;;;;5.82;0.88;;;4.70;99.90;;;;;;5018223;28;20140;-71
2024/01/04 07:27:05;;;;;;;2.45;0.32;;;4.70;99.90;;;;;;5020942;28;20148;-71
2024/01/04 07:29:31;;;;;;;2.92;0.30;;;4.70;99.90;;;;;;5023659;28;20045;-71
2024/01/04 07:31:57;;;;;;;1.98;0.50;;;4.70;99.90;;;;;;5024801;28;20450;-75
2024/01/04 07:34:23;;;;;;;5.18;0.57;;;4.70;99.90;;;;;;5020629;28;20498;-71
2024/01/04 07:36:50;;;;;;;1.95;0.30;;;4.70;99.90;;;;;;5016931;28;20124;-70
2024/01/04 07:39:15;;;;;;;0.90;0.40;;;4.70;99.90;;;;;;5021689;28;20497;-71
2024/01/04 07:41:42;;;;;;;4.90;0.67;;;4.70;99.90;;;;;;5020553;28;20636;-71
2024/01/04 07:44:09;;;;;;;6.43;1.08;;;4.70;99.90;;;;;;5018186;28;20046;-71
2024/01/04 07:46:34;;;;;;;3.30;0.52;;;4.70;99.90;;;;;;5005098;28;20405;-71
2024/01/04 07:49:00;;;;;;;1.70;0.47;;;4.70;99.90;;;;;;5028172;28;20041;-71
2024/01/04 07:51:26;;;;;;;2.63;0.67;;;4.60;99.90;;;;;;5022612;28;20041;-71
2024/01/04 07:53:51;;;;;;;1.73;0.60;;;4.60;99.90;;;;;;5025894;28;20552;-71
2024/01/04 07:56:17;;;;;;;2.33;0.53;;;4.60;99.90;;;;;;5018431;28;20042;-71
2024/01/04 07:58:42;;;;;;;2.40;0.70;;;4.60;99.90;;;;;;5028834;28;20041;-71
2024/01/04 08:01:08;;;;;;;2.17;0.67;;;4.60;99.90;;;;;;5024530;28;20049;-71
2024/01/04 08:03:34;;;;;;;2.50;0.70;;;4.60;99.90;;;;;;5024078;28;20413;-71
2024/01/04 08:05:59;;;;;;;4.33;0.70;;;4.60;99.90;;;;;;5026389;28;20037;-71
2024/01/04 08:08:28;;;;;;;1.27;0.60;;;4.50;99.90;;;;;;5022759;28;20049;-71
2024/01/04 08:10:54;;;;;;;2.58;0.77;;;4.60;99.90;;;;;;5024503;28;20406;-70
2024/01/04 08:13:19;;;;;;;4.30;1.07;;;4.60;99.90;;;;;;5021206;28;20037;-70
2024/01/04 08:15:45;;;;;;;3.77;1.17;;;4.60;99.90;;;;;;5025429;28;20056;-70
2024/01/04 08:18:11;;;;;;;3.23;0.87;;;4.60;99.90;;;;;;5031533;28;20079;-70
2024/01/04 08:20:36;;;;;;;3.10;0.83;;;4.60;99.90;;;;;;5024950;28;20236;-70
2024/01/04 08:23:02;;;;;;;2.77;0.90;;;4.60;99.90;;;;;;5024895;28;20478;-71
2024/01/04 08:25:28;;;;;;;3.07;1.20;;;4.60;99.90;;;;;;5020131;28;20041;-70
2024/01/04 08:27:54;;;;;;;6.40;1.10;;;4.70;99.90;;;;;;5026642;28;20071;-70
2024/01/04 08:30:20;;;;;;;4.35;1.27;;;4.70;99.90;;;;;;5003563;28;20095;-72
2024/01/04 08:32:45;;;;;;;3.63;1.13;;;4.70;99.90;;;;;;5027297;28;20585;-70
2024/01/04 08:35:11;;;;;;;5.00;0.80;;;4.70;99.90;;;;;;5016450;28;20474;-70
2024/01/04 08:37:36;;;;;;;2.37;0.80;;;4.70;99.90;;;;;;5026631;28;20041;-70
2024/01/04 08:40:04;;;;;;;3.67;0.73;;;4.70;99.90;;;;;;5025012;28;20045;-70
2024/01/04 08:42:30;;;;;;;3.05;0.77;;;4.70;99.90;;;;;;5006801;28;20130;-70
2024/01/04 08:44:56;;;;;;;4.50;1.25;;;4.70;99.90;;;;;;5024685;28;20041;-70
2024/01/04 08:47:24;;;;;;;3.13;1.20;;;4.80;99.90;;;;;;5024158;28;20063;-70
2024/01/04 08:49:50;;;;;;;4.38;1.10;;;4.80;99.90;;;;;;5029920;28;20033;-71
2024/01/04 08:52:16;;;;;;;2.87;1.07;;;4.80;99.90;;;;;;5028093;28;20060;-70
2024/01/04 08:54:42;;;;;;;1.47;0.67;;;4.80;99.90;;;;;;5009431;28;20056;-70
2024/01/04 08:57:07;;;;;;;2.90;0.90;;;4.80;99.90;;;;;;5024259;28;20237;-70
2024/01/04 08:59:34;;;;;;;2.60;0.67;;;4.80;99.90;;;;;;5023378;28;20366;-70
2024/01/04 09:01:59;;;;;;;2.47;1.45;;;4.80;99.90;;;;;;5004224;28;20050;-70
2024/01/04 09:04:25;;;;;;;6.90;1.60;;;4.90;99.90;;;;;;5025859;28;20058;-70
2024/01/04 09:06:51;;;;;;;3.00;1.07;;;4.90;99.90;;;;;;5026552;28;20033;-70
2024/01/04 09:09:16;;;;;;;4.60;1.33;;;4.90;99.90;;;;;;5022668;28;20049;-70
2024/01/04 09:11:48;;;;;;;3.53;1.43;;;5.00;99.90;;;;;;5022990;28;20045;-70
2024/01/04 09:14:14;;;;;;;3.05;1.00;;;5.00;99.90;;;;;;5024335;28;20103;-70
2024/01/04 09:16:43;;;;;;;3.17;1.05;;;5.00;99.90;;;;;;5021450;28;20407;-70
2024/01/04 09:19:15;;;;;;;6.43;1.38;;;5.00;99.90;;;;;;5021686;28;20045;-70
2024/01/04 09:21:42;;;;;;;5.00;1.65;;;5.00;99.90;;;;;;5024621;28;20083;-70
2024/01/04 09:24:09;;;;;;;5.25;1.30;;;5.00;99.90;;;;;;5028220;28;20180;-71
2024/01/04 09:26:42;;;;;;;2.50;1.10;;;5.00;99.90;;;;;;5021413;28;20049;-70
2024/01/04 09:29:09;;;;;;;2.85;1.13;;;5.00;99.90;;;;;;5023833;28;20038;-70
2024/01/04 09:31:35;;;;;;;4.05;0.90;;;5.10;99.90;;;;;;5024408;28;20576;-71
2024/01/04 09:34:01;;;;;;;7.85;1.52;;;5.10;99.90;;;;;;5023231;28;20133;-70
2024/01/04 09:36:26;;;;;;;4.53;1.10;;;5.10;99.90;;;;;;5014627;28;20136;-71
2024/01/04 09:38:52;;;;;;;3.00;1.20;;;5.00;99.90;;;;;;5007700;28;20041;-70
2024/01/04 09:41:32;;;;;;;2.97;0.90;;;5.10;99.90;;;;;;5023993;28;20315;-71
2024/01/04 09:44:08;;;;;;;7.70;1.65;;;5.10;99.90;;;;;;5020347;28;20510;-71
2024/01/04 09:46:38;;;;;;;6.65;1.45;;;5.20;99.90;;;;;;5023750;28;20523;-70
2024/01/04 09:49:06;;;;;;;3.08;0.88;;;5.20;99.90;;;;;;5026252;28;20449;-70
2024/01/04 09:51:39;;;;;;;3.00;1.10;;;5.30;99.90;;;;;;5022033;28;20044;-71
2024/01/04 09:54:08;;;;;;;2.22;0.90;;;5.30;99.90;;;;;;5022924;28;20532;-70
2024/01/04 09:56:50;;;;;;;2.55;0.60;;;5.30;99.90;;;;;;5022931;28;20319;-70
2024/01/04 09:59:16;;;;;;;5.03;0.80;;;5.30;99.90;;;;;;5024276;28;20049;-70
2024/01/04 10:01:43;;;;;;;3.28;0.80;;;5.30;99.90;;;;;;5023429;28;20033;-70
2024/01/04 10:04:14;;;;;;;5.68;2.05;;;5.30;99.90;;;;;;5020289;28;20548;-70
2024/01/04 10:06:44;;;;;;;4.30;1.27;;;5.30;99.90;;;;;;5023633;28;20123;-70
2024/01/04 10:09:21;;;;;;;2.00;0.65;;;5.40;99.90;;;;;;5021224;28;20053;-70
2024/01/04 10:11:59;;;;;;;3.85;0.93;;;5.40;99.90;;;;;;5022263;28;20134;-71
2024/01/04 10:14:25;;;;;;;1.33;0.60;;;5.40;99.90;;;;;;5019614;28;20138;-70
2024/01/04 10:16:51;;;;;;;;;;;5.40;99.90;;;;;;5022437;28;20061;-71
2024/01/04 10:19:17;;;;;;;1.38;0.68;;;5.40;99.90;;;;;;5022889;28;20416;-70
2024/01/04 10:21:43;;;;;;;3.83;0.88;;;5.50;99.90;;;;;;5027148;28;20037;-71
2024/01/04 10:24:13;;;;;;;1.73;0.77;;;5.50;99.90;;;;;;5023098;28;20052;-70
2024/01/04 10:26:40;;;;;;;1.58;0.73;;;5.50;99.90;;;;;;5022060;28;20045;-70
2024/01/04 10:29:06;;;;;;;8.00;1.30;;;5.50;99.90;;;;;;5022292;28;20142;-70
2024/01/04 10:31:32;;;;;;;3.05;0.70;;;5.60;99.90;;;;;;5024814;28;20096;-70
2024/01/04 10:33:59;;;;;;;5.82;0.75;;;5.60;99.90;;;;;;5004729;28;20067;-70
2024/01/04 10:36:28;;;;;;;4.38;0.70;;;5.60;99.90;;;;;;5019644;28;20052;-70
2024/01/04 10:39:08;;;;;;;8.18;0.75;;;5.70;99.90;;;;;;5021819;28;20119;-70
2024/01/04 10:41:34;;;;;;;5.88;0.98;;;5.70;99.90;;;;;;5024925;28;20132;-75
2024/01/04 10:44:06;;;;;;;2.23;0.63;;;5.70;99.90;;;;;;5018193;28;20128;-76
2024/01/04 10:46:36;;;;;;;2.97;0.73;;;5.70;99.90;;;;;;5018122;28;20045;-71
2024/01/04 10:49:05;;;;;;;1.35;0.43;;;5.80;99.90;;;;;;5023240;28;20035;-69
2024/01/04 10:51:31;;;;;;;5.38;0.60;;;5.80;99.90;;;;;;5021704;28;20457;-75
2024/01/04 10:53:58;;;;;;;;;;;5.70;99.90;;;;;;5022816;28;20128;-75
2024/01/04 10:56:25;;;;;;;5.65;0.63;;;5.70;99.90;;;;;;5023161;28;20028;-72
2024/01/04 10:58:51;;;;;;;3.83;0.77;;;5.80;99.90;;;;;;5021493;28;20045;-69
2024/01/04 11:01:18;;;;;;;3.67;0.77;;;5.70;99.90;;;;;;5021914;28;20327;-69
2024/01/04 11:03:46;;;;;;;1.75;0.50;;;5.70;99.90;;;;;;5024244;28;20072;-69
2024/01/04 11:06:14;;;;;;;3.22;0.60;;;5.70;99.90;;;;;;5021757;28;20046;-69
2024/01/04 11:08:40;;;;;;;5.78;1.02;;;5.70;99.90;;;;;;5022778;28;20068;-69
2024/01/04 11:11:07;;;;;;;2.20;0.80;;;5.70;99.90;;;;;;5020503;28;20128;-69
2024/01/04 11:13:33;;;;;;;;;;;5.70;99.90;;;;;;5024345;28;20345;-68
2024/01/04 11:16:05;;;;;;;0.95;0.38;;;5.70;99.90;;;;;;5025630;28;20413;-69
2024/01/04 11:18:54;;;;;;;1.50;0.70;;;5.70;99.90;;;;;;5025623;28;20067;-69
2024/01/04 11:21:43;;;;;;;2.42;1.00;;;5.80;99.90;;;;;;5028051;28;20124;-69
2024/01/04 11:24:24;;;;;;;2.15;0.70;;;5.80;99.90;;;;;;5025943;28;20048;-69
2024/01/04 11:26:57;;;;;;;3.85;0.60;;;5.80;99.90;;;;;;5005734;28;20509;-69
2024/01/04 11:29:24;;;;;;;2.05;0.70;;;5.80;99.90;;;;;;5006810;28;20037;-69
2024/01/04 11:31:50;;;;;;;;;;;5.90;99.90;;;;;;5021583;28;20041;-69
2024/01/04 11:34:16;;;;;;;2.33;0.47;;;5.90;99.90;;;;;;5024696;28;19928;-69
2024/01/04 11:36:42;;;;;;;1.20;0.40;;;5.90;99.90;;;;;;5021306;28;20132;-70
2024/01/04 11:39:07;;;;;;;5.83;0.60;;;5.90;99.90;;;;;;5019574;28;20501;-69
2024/01/04 11:41:37;;;;;;;3.73;0.60;;;5.90;99.90;;;;;;5018599;28;20044;-70
2024/01/04 11:44:14;;;;;;;1.27;0.50;;;6.00;99.90;;;;;;5012619;28;20103;-69
2024/01/04 11:46:42;;;;;;;2.38;0.60;;;6.00;99.90;;;;;;5017580;28;20056;-70
2024/01/04 11:49:08;;;;;;;1.08;0.43;;;6.00;99.90;;;;;;5015594;28;20067;-69
2024/01/04 11:51:44;;;;;;;3.20;0.60;;;5.90;99.90;;;;;;5027030;28;20033;-69
2024/01/04 11:54:11;;;;;;;1.02;0.30;;;5.90;99.90;;;;;;5013681;28;20409;-70
2024/01/04 11:56:39;;;;;;;2.00;0.55;;;5.90;99.90;;;;;;5023574;28;20084;-70
2024/01/04 11:59:12;;;;;;;3.65;0.75;;;5.90;99.90;;;;;;5027185;28;20139;-70
2024/01/04 12:01:40;;;;;;;0.45;0.30;;;5.90;99.90;;;;;;5023938;28;20045;-69
2024/01/04 12:04:13;;;;;;;1.95;0.80;;;6.00;99.90;;;;;;5025400;28;20807;-70
2024/01/04 12:06:40;;;;;;;2.92;0.63;;;6.00;99.90;;;;;;5008557;28;20044;-70
2024/01/04 12:09:07;;;;;;;3.00;0.90;;;6.10;99.90;;;;;;5024402;28;20675;-70
2024/01/04 12:11:38;;;;;;;3.55;0.98;;;6.10;99.90;;;;;;5027305;28;20159;-70
2024/01/04 12:14:05;;;;;;;3.38;0.70;;;6.10;99.90;;;;;;5027291;28;20044;-69
2024/01/04 12:16:31;;;;;;;2.22;1.17;;;6.20;99.90;;;;;;5026166;28;20202;-69
2024/01/04 12:18:57;;;;;;;1.02;0.40;;;6.20;99.90;;;;;;5025053;28;20067;-70
2024/01/04 12:21:25;;;;;;;6.70;0.60;;;6.30;99.90;;;;;;5024618;28;20060;-70
2024/01/04 12:23:52;;;;;;;1.05;0.60;;;6.30;99.90;;;;;;5020587;28;20041;-69
2024/01/04 12:26:18;;;;;;;1.38;0.30;;;6.40;99.90;;;;;;5007652;28;20049;-69
2024/01/04 12:28:44;;;;;;;3.75;0.52;;;6.40;99.90;;;;;;5027446;28;20399;-70
2024/01/04 12:31:11;;;;;;;4.40;0.52;;;6.40;99.90;;;;;;5022705;28;20054;-70
2024/01/04 12:33:39;;;;;;;0.98;0.47;;;6.40;99.90;;;;;;5017969;28;20045;-70
2024/01/04 12:36:05;;;;;;;1.98;0.43;;;6.40;99.90;;;;;;5024946;28;20052;-69
2024/01/04 12:38:31;;;;;;;1.40;0.80;;;6.40;99.90;;;;;;5005217;28;20037;-71
2024/01/04 12:40:56;;;;;;;3.20;0.40;;;6.30;99.90;;;;;;5026623;28;20037;-70
2024/01/04 12:43:23;;;;;;;1.67;0.40;;;6.30;99.90;;;;;;5020512;28;20038;-69
2024/01/04 12:46:05;;;;;;;1.60;0.50;;;6.20;99.90;;;;;;5007191;28;20423;-69
2024/01/04 12:48:31;;;;;;;1.20;0.50;;;6.30;99.90;;;;;;5004732;28;20100;-70
2024/01/04 12:51:07;;;;;;;0.52;0.30;;;6.20;99.90;;;;;;5026907;28;20045;-70
2024/01/04 12:53:33;;;;;;;1.42;0.60;;;6.20;99.90;;;;;;5023101;28;20500;-69
2024/01/04 12:55:59;;;;;;;0.87;0.60;;;6.10;99.90;;;;;;5025644;28;20124;-69
2024/01/04 12:58:25;;;;;;;3.08;0.75;;;6.20;99.90;;;;;;5016442;28;20702;-69